Accueil
METAR-TAF:

METAR-TAF

Aéroports :

Aéroport d'Olbia

Olbia, Italie

latitude: 40-54N, longitude: 009-31E, altitude: 11 m

Observation

Le bulletin a été fait il y a 49 minutes, à 14:50 UTC
Vent 10 kt de est/nord-est, variant entre nord-est et est/sud-est
Température 26°C
Humidité 34%
Pression 1018 hPa
Visibilité 10 km ou plus
pas de nuages en-dessous de 1500 mètres et pas de cumulonimbus.

METAR: LIEO 141450Z 07010KT 040V110 CAVOK 26/09 Q1018

Heure: 17:39 (15:39 UTC)

Prévision

Le bulletin a été fait il y a 4 heures et 39 minutes, à 11:00 UTC
Prévision valable du 14 à 12 UTC au 15 à 12 UTC
Vent 10 kt de est/nord-est
Visibilité 10 km ou plus
Quelques nuages à une hauteur de 4000 ft
Evoluant progressivement
du 14 à 17 UTC au 14 à 19 UTC
Vent 5 kt de direction variable
Evoluant progressivement
du 15 à 09 UTC au 15 à 11 UTC
Vent 10 kt de est

TAF: LIEO 141100Z 1412/1512 07010KT 9999 FEW040 BECMG 1417/1419 VRB05KT BECMG 1509/1511 08010KT

Observations et prévisions météorologiques de plus de 4000 aéroports (messages METAR et TAF).

Les stations disponibles sont représentées par des disques jaunes et rouges sur la carte.

Passer la souris dessus pour voir le nom de la station.

Cliquer dessus pour voir les observations et prévisions météorologiques.

Pour changer de carte: cliquez sur les boutons verts avec une croix noire pour zoomer, sur le bouton vert avec un tiret pour effectuer un zoom arrière, ou sur les flèches vertes pour les cartes adjacentes.


METAR-TAF: